createdAt,value
2019-03-08T00:00:10.126Z,84.80
2019-03-08T00:04:16.686Z,85.00
2019-03-08T00:08:21.670Z,85.60
2019-03-08T00:12:26.666Z,85.20
2019-03-08T00:16:31.630Z,86.00
2019-03-08T00:20:36.864Z,85.30
2019-03-08T00:24:41.846Z,85.30
2019-03-08T00:28:46.809Z,85.30
2019-03-08T00:32:51.806Z,84.90
2019-03-08T00:36:56.800Z,84.40
2019-03-08T00:41:01.794Z,84.90
2019-03-08T00:45:09.917Z,85.70
2019-03-08T00:49:15.012Z,86.20
2019-03-08T00:53:20.013Z,87.10
2019-03-08T00:57:25.013Z,86.40
2019-03-08T01:01:30.197Z,86.20
2019-03-08T01:05:35.182Z,86.10
2019-03-08T01:09:41.793Z,85.90
2019-03-08T01:13:46.742Z,85.50
2019-03-08T01:17:51.797Z,86.10
2019-03-08T01:21:56.782Z,86.80
2019-03-08T01:26:01.808Z,87.20
2019-03-08T01:30:11.935Z,87.30
2019-03-08T01:34:16.913Z,87.90
2019-03-08T01:38:22.180Z,86.70
2019-03-08T01:42:27.163Z,86.40
2019-03-08T01:46:32.146Z,84.80
2019-03-08T01:50:37.141Z,84.30
2019-03-08T01:54:42.225Z,84.10
2019-03-08T01:58:47.292Z,83.10
2019-03-08T02:02:52.348Z,82.90
2019-03-08T02:06:57.447Z,83.40
2019-03-08T02:11:02.442Z,82.80
2019-03-08T02:15:10.752Z,82.70
2019-03-08T02:19:15.819Z,82.60
2019-03-08T02:23:20.816Z,82.90
2019-03-08T02:27:26.106Z,82.30
2019-03-08T02:31:31.134Z,82.70
2019-03-08T02:35:36.177Z,81.30
2019-03-08T02:39:41.174Z,81.60
2019-03-08T02:43:46.167Z,82.00
2019-03-08T02:47:51.226Z,82.10
2019-03-08T02:51:56.208Z,81.70
2019-03-08T02:56:01.396Z,82.10
2019-03-08T03:00:09.718Z,82.40
2019-03-08T03:04:14.987Z,82.40
2019-03-08T03:08:20.014Z,82.20
2019-03-08T03:12:25.015Z,81.70
2019-03-08T03:16:30.570Z,81.40
2019-03-08T03:20:35.818Z,81.30
2019-03-08T03:24:41.073Z,80.50
2019-03-08T03:28:46.333Z,80.40
2019-03-08T03:32:51.315Z,80.50
2019-03-08T03:36:56.582Z,79.90
2019-03-08T03:41:01.717Z,79.90
2019-03-08T03:45:09.239Z,80.50
2019-03-08T03:49:14.514Z,79.70
2019-03-08T03:53:19.609Z,79.20
2019-03-08T03:57:24.664Z,79.20
2019-03-08T04:01:31.598Z,79.50
2019-03-08T04:05:36.851Z,80.10
2019-03-08T04:09:41.845Z,80.80
2019-03-08T04:13:46.889Z,81.30
2019-03-08T04:17:51.893Z,82.00
2019-03-08T04:21:56.912Z,82.40
2019-03-08T04:26:01.865Z,82.30
2019-03-08T04:30:10.300Z,81.80
2019-03-08T04:34:15.490Z,80.50
2019-03-08T04:38:20.756Z,80.70
2019-03-08T04:42:25.745Z,80.90
2019-03-08T04:46:30.710Z,81.20
2019-03-08T04:50:35.697Z,81.20
2019-03-08T04:54:40.689Z,81.00
2019-03-08T04:58:45.665Z,80.90
2019-03-08T05:02:50.998Z,81.00
2019-03-08T05:06:56.093Z,80.60
2019-03-08T05:11:01.061Z,79.80
2019-03-08T05:15:06.622Z,80.70
2019-03-08T05:19:11.610Z,81.10
2019-03-08T05:23:16.786Z,81.30
2019-03-08T05:27:21.777Z,81.10
2019-03-08T05:31:27.183Z,79.90
2019-03-08T05:35:32.180Z,79.70
2019-03-08T05:39:37.328Z,79.30
2019-03-08T05:43:42.498Z,79.70
2019-03-08T05:47:47.518Z,79.80
2019-03-08T05:51:52.703Z,79.60
2019-03-08T05:55:57.676Z,79.90
2019-03-08T06:00:04.022Z,80.00
2019-03-08T06:04:09.734Z,76.00
2019-03-08T06:08:15.015Z,70.00
2019-03-08T06:12:20.289Z,65.50
2019-03-08T06:16:25.533Z,68.30
2019-03-08T06:20:30.794Z,71.00
2019-03-08T06:24:36.050Z,71.30
2019-03-08T06:28:41.321Z,71.20
2019-03-08T06:32:46.647Z,70.50
2019-03-08T06:36:52.104Z,59.30
2019-03-08T06:40:57.410Z,51.50
2019-03-08T06:45:02.767Z,46.60
2019-03-08T06:49:08.110Z,45.00
2019-03-08T06:53:14.486Z,46.50
2019-03-08T06:57:20.525Z,47.80
2019-03-08T07:01:26.017Z,46.90
2019-03-08T07:05:31.285Z,45.40
2019-03-08T07:09:36.604Z,43.70
2019-03-08T07:13:41.966Z,42.80
2019-03-08T07:17:47.222Z,41.60
2019-03-08T07:21:54.510Z,40.30
2019-03-08T07:26:01.403Z,41.20
2019-03-08T07:30:11.066Z,40.30
2019-03-08T07:34:20.882Z,39.80
2019-03-08T07:38:27.795Z,39.80
2019-03-08T07:42:34.726Z,37.80
2019-03-08T07:46:47.770Z,36.20
2019-03-08T07:50:55.652Z,36.00
2019-03-08T07:55:08.319Z,35.30
2019-03-08T07:59:25.422Z,38.00
2019-03-08T08:03:35.027Z,44.10
2019-03-08T08:07:44.864Z,45.00
2019-03-08T08:11:54.516Z,43.30
2019-03-08T08:16:07.278Z,44.50
2019-03-08T08:20:23.022Z,45.10
2019-03-08T08:24:29.975Z,47.50
2019-03-08T08:28:55.967Z,48.60
2019-03-08T08:33:08.942Z,50.90
2019-03-08T08:37:18.554Z,54.00
2019-03-08T08:41:34.282Z,56.00
2019-03-08T08:45:57.226Z,57.10
2019-03-08T08:50:10.225Z,57.80
2019-03-08T08:54:19.778Z,57.30
2019-03-08T08:58:29.698Z,56.00
2019-03-08T09:02:36.627Z,53.50
2019-03-08T09:06:43.544Z,54.00
2019-03-08T09:10:50.537Z,54.60
2019-03-08T09:15:00.289Z,55.80
2019-03-08T09:19:10.198Z,56.30
2019-03-08T09:23:17.114Z,57.50
2019-03-08T09:27:26.962Z,58.30
2019-03-08T09:31:33.885Z,59.10
2019-03-08T09:35:43.660Z,59.60
2019-03-08T09:39:56.810Z,60.30
2019-03-08T09:44:20.983Z,60.90
2019-03-08T09:48:48.603Z,61.50
2019-03-08T09:52:57.262Z,62.30
2019-03-08T09:57:07.475Z,63.60
2019-03-08T10:01:23.227Z,64.20
2019-03-08T10:05:32.546Z,64.00
2019-03-08T10:09:42.175Z,63.70
2019-03-08T10:14:01.113Z,62.10
2019-03-08T10:18:08.014Z,60.50
2019-03-08T10:22:17.697Z,59.30
2019-03-08T10:26:24.618Z,58.40
2019-03-08T10:30:34.495Z,57.10
2019-03-08T10:34:50.458Z,57.30
2019-03-08T10:38:59.964Z,57.80
2019-03-08T10:43:21.950Z,58.20
2019-03-08T10:47:31.330Z,57.10
2019-03-08T10:51:38.284Z,56.50
2019-03-08T10:55:48.108Z,56.10
2019-03-08T11:00:08.416Z,56.10
2019-03-08T11:04:15.394Z,56.30
2019-03-08T11:08:38.998Z,55.20
2019-03-08T11:12:48.445Z,55.50
2019-03-08T11:16:55.504Z,56.40
2019-03-08T11:21:08.134Z,58.20
2019-03-08T11:25:18.032Z,58.60
2019-03-08T11:29:25.334Z,59.50
2019-03-08T11:33:44.610Z,62.20
2019-03-08T11:37:51.752Z,62.70
2019-03-08T11:42:02.955Z,64.10
2019-03-08T11:46:19.046Z,64.40
2019-03-08T11:50:40.829Z,66.50
2019-03-08T11:54:56.526Z,69.30
2019-03-08T11:59:18.433Z,69.00
2019-03-08T12:03:37.316Z,69.30
2019-03-08T12:07:44.228Z,70.90
2019-03-08T12:12:07.598Z,74.70
2019-03-08T12:16:30.838Z,81.30
2019-03-08T12:20:37.759Z,88.70
2019-03-08T12:25:01.401Z,93.10
2019-03-08T12:29:26.179Z,95.30
2019-03-08T12:33:35.589Z,96.60
2019-03-08T12:37:54.799Z,96.60
2019-03-08T12:42:10.202Z,95.50
2019-03-08T12:46:16.858Z,95.50
2019-03-08T12:50:32.829Z,95.90
2019-03-08T12:54:51.301Z,96.10
2019-03-08T12:59:00.443Z,96.30
2019-03-08T13:03:07.116Z,95.50
2019-03-08T13:07:30.293Z,95.10
2019-03-08T13:11:35.289Z,95.10
2019-03-08T13:15:41.278Z,95.60
2019-03-08T13:19:46.563Z,95.40
2019-03-08T13:23:51.551Z,95.00
2019-03-08T13:27:57.134Z,94.60
2019-03-08T13:32:02.131Z,93.60
2019-03-08T13:36:08.017Z,92.80
2019-03-08T13:40:16.899Z,92.10
2019-03-08T13:44:22.201Z,92.40
2019-03-08T13:48:27.474Z,91.60
2019-03-08T13:52:32.728Z,91.30
2019-03-08T13:56:38.294Z,91.00
2019-03-08T14:00:43.605Z,90.80
2019-03-08T14:04:48.887Z,90.20
2019-03-08T14:08:54.138Z,88.40
2019-03-08T14:12:59.369Z,86.50
2019-03-08T14:17:04.793Z,85.90
2019-03-08T14:21:10.065Z,86.80
2019-03-08T14:25:15.605Z,85.10
2019-03-08T14:29:22.192Z,84.40
2019-03-08T14:33:27.922Z,84.00
2019-03-08T14:37:33.173Z,84.00
2019-03-08T14:41:40.083Z,83.80
2019-03-08T14:45:47.290Z,82.80
2019-03-08T14:49:55.382Z,82.80
2019-03-08T14:53:59.534Z,83.70
2019-03-08T14:58:04.781Z,84.90
2019-03-08T15:02:13.663Z,83.70
2019-03-08T15:06:16.948Z,82.90
2019-03-08T15:10:22.272Z,82.60
2019-03-08T15:14:30.168Z,82.80
2019-03-08T15:18:34.424Z,82.30
2019-03-08T15:22:39.668Z,81.60
2019-03-08T15:26:44.938Z,82.00
2019-03-08T15:30:50.265Z,83.30
2019-03-08T15:34:55.619Z,83.80
2019-03-08T15:39:00.894Z,84.90
2019-03-08T15:43:09.751Z,83.20
2019-03-08T15:47:23.245Z,82.20
2019-03-08T15:51:25.349Z,81.70
2019-03-08T15:55:29.461Z,81.80
2019-03-08T15:59:35.037Z,81.60
2019-03-08T16:03:40.345Z,80.50
2019-03-08T16:07:45.786Z,81.60
2019-03-08T16:11:51.042Z,82.20
2019-03-08T16:15:56.412Z,81.20
2019-03-08T16:20:02.953Z,81.40
2019-03-08T16:24:09.146Z,81.10
2019-03-08T16:28:14.419Z,80.90
2019-03-08T16:32:33.134Z,79.80
2019-03-08T16:36:39.898Z,79.30
2019-03-08T16:40:55.851Z,78.50
2019-03-08T16:45:19.034Z,78.50
2019-03-08T16:49:25.763Z,79.60
2019-03-08T16:53:41.342Z,80.20
2019-03-08T16:58:06.129Z,81.40
2019-03-08T17:02:18.739Z,82.90
2019-03-08T17:06:31.746Z,83.90
2019-03-08T17:10:54.533Z,83.90
2019-03-08T17:15:18.314Z,84.40
2019-03-08T17:19:28.447Z,85.30
2019-03-08T17:23:47.433Z,85.70
2019-03-08T17:27:56.981Z,86.00
2019-03-08T17:32:06.454Z,86.60
2019-03-08T17:36:18.798Z,87.10
2019-03-08T17:40:31.771Z,86.90
2019-03-08T17:44:58.194Z,87.80
2019-03-08T17:49:07.442Z,88.50
2019-03-08T17:53:23.240Z,89.10
2019-03-08T17:57:32.918Z,90.00
2019-03-08T18:01:51.412Z,90.30
2019-03-08T18:05:58.518Z,90.80
2019-03-08T18:10:08.842Z,90.80
2019-03-08T18:14:24.430Z,90.90
2019-03-08T18:18:31.079Z,91.20
2019-03-08T18:22:43.787Z,91.50
2019-03-08T18:26:56.769Z,91.60
2019-03-08T18:31:18.694Z,91.60
2019-03-08T18:35:34.493Z,91.90
2019-03-08T18:39:46.913Z,92.10
2019-03-08T18:43:59.301Z,92.20
2019-03-08T18:48:06.614Z,92.60
2019-03-08T18:52:13.247Z,92.70
2019-03-08T18:56:22.521Z,93.10
2019-03-08T19:00:29.209Z,93.20
2019-03-08T19:04:35.903Z,93.60
2019-03-08T19:08:51.626Z,93.90
2019-03-08T19:13:00.835Z,94.20
2019-03-08T19:17:13.387Z,94.50
2019-03-08T19:21:36.246Z,94.70
2019-03-08T19:25:51.917Z,95.00
2019-03-08T19:29:58.622Z,94.80
2019-03-08T19:34:17.087Z,95.20
2019-03-08T19:38:38.865Z,95.10
2019-03-08T19:42:48.186Z,95.10
2019-03-08T19:47:11.042Z,95.40
2019-03-08T19:51:29.406Z,95.40
2019-03-08T19:55:41.697Z,95.20
2019-03-08T19:59:50.765Z,95.00
2019-03-08T20:04:13.666Z,95.00
2019-03-08T20:08:26.254Z,95.10
2019-03-08T20:12:38.648Z,95.10
2019-03-08T20:16:45.282Z,95.10
2019-03-08T20:20:54.619Z,95.00
2019-03-08T20:25:07.362Z,95.00
2019-03-08T20:29:23.791Z,94.90
2019-03-08T20:33:30.694Z,94.60
2019-03-08T20:37:37.682Z,94.50
2019-03-08T20:41:46.853Z,94.50
2019-03-08T20:45:53.824Z,94.80
2019-03-08T20:50:00.755Z,94.80
2019-03-08T20:54:06.226Z,95.00
2019-03-08T20:58:12.470Z,94.90
2019-03-08T21:02:17.469Z,94.80
2019-03-08T21:06:22.738Z,94.90
2019-03-08T21:10:27.801Z,94.90
2019-03-08T21:14:32.795Z,94.90
2019-03-08T21:18:37.794Z,95.10
2019-03-08T21:22:42.809Z,95.10
2019-03-08T21:26:49.221Z,95.30
2019-03-08T21:30:54.239Z,95.30
2019-03-08T21:34:59.234Z,95.00
2019-03-08T21:39:06.485Z,94.60
2019-03-08T21:43:13.147Z,94.30
2019-03-08T21:47:18.550Z,94.00
2019-03-08T21:51:23.529Z,93.60
2019-03-08T21:55:28.543Z,93.30
2019-03-08T21:59:35.310Z,93.10
2019-03-08T22:03:40.779Z,92.90
2019-03-08T22:07:45.874Z,92.90
2019-03-08T22:11:51.881Z,93.00
2019-03-08T22:15:56.842Z,92.90
2019-03-08T22:20:03.733Z,92.80
2019-03-08T22:24:13.452Z,92.60
2019-03-08T22:28:16.259Z,92.50
2019-03-08T22:32:21.233Z,92.50
2019-03-08T22:36:26.225Z,92.50
2019-03-08T22:40:31.218Z,92.60
2019-03-08T22:44:36.214Z,92.50
2019-03-08T22:48:42.181Z,92.50
2019-03-08T22:52:47.170Z,92.50
2019-03-08T22:56:52.190Z,92.50
2019-03-08T23:01:00.862Z,92.50
2019-03-08T23:05:07.538Z,92.30
2019-03-08T23:09:13.946Z,92.00
2019-03-08T23:13:19.811Z,91.80
2019-03-08T23:17:24.794Z,91.50
2019-03-08T23:21:29.889Z,91.30
2019-03-08T23:25:34.877Z,91.30
2019-03-08T23:29:47.707Z,91.20
2019-03-08T23:33:53.001Z,91.10
2019-03-08T23:37:58.018Z,91.20
2019-03-08T23:42:03.042Z,91.40
2019-03-08T23:46:08.033Z,91.30
2019-03-08T23:50:13.084Z,91.20
2019-03-08T23:54:18.282Z,91.10
2019-03-08T23:58:23.325Z,91.10
